createdAt,value
2019-05-14T00:00:46.308Z,96806.42
2019-05-14T00:01:51.404Z,96810.69
2019-05-14T00:02:55.507Z,96808.32
2019-05-14T00:03:58.966Z,96812.02
2019-05-14T00:05:03.091Z,96811.91
2019-05-14T00:06:06.517Z,96812.91
2019-05-14T00:07:11.595Z,96804.61
2019-05-14T00:08:17.555Z,96809.97
2019-05-14T00:09:21.506Z,96804.94
2019-05-14T00:10:24.974Z,96805.60
2019-05-14T00:11:31.215Z,96806.91
2019-05-14T00:12:34.111Z,96805.39
2019-05-14T00:13:38.116Z,96808.89
2019-05-14T00:14:43.729Z,96806.61
2019-05-14T00:15:47.355Z,96805.07
2019-05-14T00:16:51.400Z,96804.94
2019-05-14T00:17:55.422Z,96802.64
2019-05-14T00:18:59.018Z,96802.77
2019-05-14T00:20:09.712Z,96803.89
2019-05-14T00:21:08.228Z,96804.87
2019-05-14T00:22:12.208Z,96798.41
2019-05-14T00:23:15.636Z,96794.38
2019-05-14T00:24:21.619Z,96792.52
2019-05-14T00:25:24.864Z,96792.52
2019-05-14T00:26:28.922Z,96794.83
2019-05-14T00:27:32.390Z,96798.42
2019-05-14T00:28:36.397Z,96797.02
2019-05-14T00:29:41.758Z,96793.40
2019-05-14T00:30:45.691Z,96787.70
2019-05-14T00:31:51.530Z,96790.33
2019-05-14T00:32:54.927Z,96790.33
2019-05-14T00:33:58.438Z,96783.03
2019-05-14T00:35:02.511Z,96783.23
2019-05-14T00:36:05.960Z,96783.23
2019-05-14T00:37:11.499Z,96777.80
2019-05-14T00:38:15.107Z,96784.89
2019-05-14T00:39:21.247Z,96781.61
2019-05-14T00:40:24.267Z,96783.92
2019-05-14T00:41:28.249Z,96783.92
2019-05-14T00:42:32.051Z,96781.42
2019-05-14T00:43:36.031Z,96775.18
2019-05-14T00:44:51.640Z,96781.73
2019-05-14T00:45:45.263Z,96778.80
2019-05-14T00:46:48.690Z,96778.80
2019-05-14T00:47:52.765Z,96772.55
2019-05-14T00:48:56.202Z,96774.85
2019-05-14T00:50:02.260Z,96764.61
2019-05-14T00:51:05.423Z,96764.61
2019-05-14T00:52:11.515Z,96769.92
2019-05-14T00:53:14.628Z,96773.20
2019-05-14T00:54:18.634Z,96764.27
2019-05-14T00:55:22.476Z,96764.27
2019-05-14T00:56:26.578Z,96762.19
2019-05-14T00:57:31.581Z,96773.00
2019-05-14T00:58:35.473Z,96770.06
2019-05-14T00:59:38.916Z,96769.95
2019-05-14T01:00:43.188Z,96766.56
2019-05-14T01:01:46.692Z,96768.30
2019-05-14T01:02:51.835Z,96774.52
2019-05-14T01:03:55.453Z,96770.92
2019-05-14T01:05:01.715Z,96774.63
2019-05-14T01:06:04.748Z,96773.56
2019-05-14T01:07:08.822Z,96775.29
2019-05-14T01:08:12.256Z,96775.29
2019-05-14T01:09:16.274Z,96775.07
2019-05-14T01:10:21.992Z,96775.07
2019-05-14T01:11:25.566Z,96765.48
2019-05-14T01:12:28.991Z,96779.78
2019-05-14T01:13:32.979Z,96769.73
2019-05-14T01:14:36.432Z,96769.73
2019-05-14T01:15:41.474Z,96767.20
2019-05-14T01:16:45.036Z,96767.20
2019-05-14T01:17:51.636Z,96773.55
2019-05-14T01:18:55.158Z,96775.30
2019-05-14T01:19:59.301Z,96774.76
2019-05-14T01:21:02.811Z,96776.37
2019-05-14T01:22:06.925Z,96775.20
2019-05-14T01:23:11.525Z,96764.39
2019-05-14T01:24:15.596Z,96776.17
2019-05-14T01:25:19.043Z,96776.17
2019-05-14T01:26:23.043Z,96772.91
2019-05-14T01:27:26.553Z,96774.22
2019-05-14T01:28:32.152Z,96776.17
2019-05-14T01:29:35.816Z,96769.17
2019-05-14T01:30:41.114Z,96766.58
2019-05-14T01:31:44.703Z,96766.58
2019-05-14T01:32:50.983Z,96767.88
2019-05-14T01:33:53.903Z,96763.95
2019-05-14T01:34:57.984Z,96766.56
2019-05-14T01:36:02.061Z,96769.19
2019-05-14T01:37:06.284Z,96766.56
2019-05-14T01:38:11.474Z,96763.20
2019-05-14T01:39:15.650Z,96763.20
2019-05-14T01:40:19.163Z,96762.19
2019-05-14T01:41:23.155Z,96759.81
2019-05-14T01:42:26.580Z,96760.36
2019-05-14T01:43:31.501Z,96763.85
2019-05-14T01:44:35.079Z,96750.97
2019-05-14T01:45:41.554Z,96760.47
2019-05-14T01:46:44.247Z,96760.47
2019-05-14T01:47:48.365Z,96753.59
2019-05-14T01:48:52.229Z,96753.59
2019-05-14T01:49:56.227Z,96756.64
2019-05-14T01:51:01.594Z,96744.09
2019-05-14T01:52:05.612Z,96745.06
2019-05-14T01:53:11.397Z,96750.53
2019-05-14T01:54:14.949Z,96741.91
2019-05-14T01:55:18.392Z,96747.14
2019-05-14T01:56:22.446Z,96740.16
2019-05-14T01:57:25.948Z,96742.34
2019-05-14T01:58:31.121Z,96738.41
2019-05-14T01:59:34.750Z,96746.92
2019-05-14T02:00:38.607Z,96745.09
2019-05-14T02:01:42.073Z,96738.41
2019-05-14T02:02:46.131Z,96741.14
2019-05-14T02:03:51.633Z,96734.48
2019-05-14T02:04:55.396Z,96734.48
2019-05-14T02:06:01.188Z,96726.88
2019-05-14T02:07:04.764Z,96726.88
2019-05-14T02:08:08.196Z,96734.92
2019-05-14T02:09:12.259Z,96728.48
2019-05-14T02:10:16.298Z,96728.61
2019-05-14T02:11:21.385Z,96723.47
2019-05-14T02:12:24.980Z,96723.92
2019-05-14T02:13:28.972Z,96729.48
2019-05-14T02:14:32.535Z,96724.23
2019-05-14T02:15:39.953Z,96724.33
2019-05-14T02:16:42.412Z,96717.91
2019-05-14T02:17:46.433Z,96724.55
2019-05-14T02:18:52.061Z,96718.78
2019-05-14T02:19:55.666Z,96725.02
2019-05-14T02:21:01.347Z,96714.84
2019-05-14T02:22:04.900Z,96717.16
2019-05-14T02:23:08.314Z,96710.92
2019-05-14T02:24:12.298Z,96710.92
2019-05-14T02:25:15.802Z,96717.02
2019-05-14T02:26:21.886Z,96721.52
2019-05-14T02:27:25.025Z,96712.56
2019-05-14T02:28:31.301Z,96717.25
2019-05-14T02:29:34.182Z,96717.25
2019-05-14T02:30:48.043Z,96717.27
2019-05-14T02:31:43.338Z,96711.78
2019-05-14T02:32:49.791Z,96714.63
2019-05-14T02:33:52.497Z,96715.61
2019-05-14T02:34:58.974Z,96713.53
2019-05-14T02:36:01.720Z,96708.42
2019-05-14T02:37:09.000Z,96714.84
2019-05-14T02:38:11.028Z,96714.19
2019-05-14T02:39:15.016Z,96714.42
2019-05-14T02:40:20.209Z,96714.42
2019-05-14T02:41:24.562Z,96716.91
2019-05-14T02:42:28.986Z,96708.20
2019-05-14T02:43:33.160Z,96708.20
2019-05-14T02:44:40.293Z,96712.22
2019-05-14T02:46:00.822Z,96705.90
2019-05-14T02:46:50.575Z,96705.90
2019-05-14T02:47:53.962Z,96705.48
2019-05-14T02:48:59.448Z,96701.43
2019-05-14T02:50:03.274Z,96700.13
2019-05-14T02:51:10.218Z,96703.19
2019-05-14T02:52:12.407Z,96699.26
2019-05-14T02:53:19.521Z,96703.29
2019-05-14T02:54:21.591Z,96703.29
2019-05-14T02:55:25.097Z,96701.98
2019-05-14T02:56:29.746Z,96699.27
2019-05-14T02:57:33.192Z,96707.89
2019-05-14T02:58:40.109Z,96709.40
2019-05-14T02:59:42.537Z,96709.84
2019-05-14T03:00:49.076Z,96704.17
2019-05-14T03:01:51.743Z,96703.06
2019-05-14T03:02:55.799Z,96705.82
2019-05-14T03:03:59.915Z,96694.16
2019-05-14T03:05:04.983Z,96697.31
2019-05-14T03:06:09.498Z,96692.82
2019-05-14T03:07:13.837Z,96692.82
2019-05-14T03:08:19.856Z,96697.31
2019-05-14T03:09:23.390Z,96692.82
2019-05-14T03:10:29.938Z,96694.36
2019-05-14T03:11:32.667Z,96690.77
2019-05-14T03:12:39.540Z,96685.20
2019-05-14T03:13:42.191Z,96690.00
2019-05-14T03:14:45.784Z,96690.22
2019-05-14T03:15:50.219Z,96690.22
2019-05-14T03:16:53.864Z,96683.47
2019-05-14T03:17:59.899Z,96683.47
2019-05-14T03:19:03.232Z,96683.46
2019-05-14T03:20:09.323Z,96682.25
2019-05-14T03:21:12.844Z,96681.72
2019-05-14T03:22:25.800Z,96675.17
2019-05-14T03:23:23.277Z,96678.77
2019-05-14T03:24:28.890Z,96678.09
2019-05-14T03:25:32.629Z,96678.00
2019-05-14T03:26:39.469Z,96678.33
2019-05-14T03:27:41.936Z,96676.15
2019-05-14T03:28:49.259Z,96676.15
2019-05-14T03:29:51.286Z,96681.61
2019-05-14T03:30:55.366Z,96686.30
2019-05-14T03:32:03.260Z,96677.23
2019-05-14T03:33:04.644Z,96677.69
2019-05-14T03:34:13.600Z,96676.79
2019-05-14T03:35:14.621Z,96681.92
2019-05-14T03:36:25.987Z,96682.59
2019-05-14T03:37:24.654Z,96680.17
2019-05-14T03:38:29.583Z,96684.33
2019-05-14T03:39:33.947Z,96684.64
2019-05-14T03:40:39.949Z,96681.69
2019-05-14T03:41:43.411Z,96681.69
2019-05-14T03:42:49.027Z,96684.87
2019-05-14T03:43:52.829Z,96680.72
2019-05-14T03:44:59.373Z,96680.72
2019-05-14T03:46:02.198Z,96682.56
2019-05-14T03:47:09.934Z,96682.56
2019-05-14T03:48:11.440Z,96676.92
2019-05-14T03:49:14.946Z,96679.95
2019-05-14T03:50:19.329Z,96679.95
2019-05-14T03:51:22.910Z,96684.77
2019-05-14T03:52:29.179Z,96679.95
2019-05-14T03:53:50.776Z,96678.44
2019-05-14T03:54:40.593Z,96678.00
2019-05-14T03:55:43.571Z,96676.70
2019-05-14T03:56:49.745Z,96678.20
2019-05-14T03:57:53.039Z,96676.70
2019-05-14T03:58:59.999Z,96672.97
2019-05-14T04:00:02.395Z,96671.46
2019-05-14T04:01:09.606Z,96675.83
2019-05-14T04:02:11.989Z,96670.91
2019-05-14T04:03:19.531Z,96667.08
2019-05-14T04:04:21.706Z,96674.19
2019-05-14T04:05:29.248Z,96671.88
2019-05-14T04:06:31.515Z,96668.63
2019-05-14T04:07:39.363Z,96670.13
2019-05-14T04:08:44.162Z,96670.13
2019-05-14T04:09:49.593Z,96674.72
2019-05-14T04:10:55.338Z,96668.18
2019-05-14T04:12:02.438Z,96670.80
2019-05-14T04:13:09.023Z,96677.00
2019-05-14T04:14:14.352Z,96673.52
2019-05-14T04:15:19.256Z,96669.05
2019-05-14T04:16:24.509Z,96669.36
2019-05-14T04:17:37.016Z,96669.59
2019-05-14T04:18:40.517Z,96666.31
2019-05-14T04:19:45.434Z,96665.88
2019-05-14T04:20:50.624Z,96665.77
2019-05-14T04:21:55.502Z,96669.26
2019-05-14T04:23:01.294Z,96667.52
2019-05-14T04:24:04.902Z,96664.23
2019-05-14T04:25:11.185Z,96667.52
2019-05-14T04:26:20.034Z,96663.80
2019-05-14T04:27:25.428Z,96660.84
2019-05-14T04:28:31.244Z,96665.88
2019-05-14T04:29:39.551Z,96663.59
2019-05-14T04:30:45.167Z,96665.34
2019-05-14T04:31:50.147Z,96663.83
2019-05-14T04:32:55.803Z,96665.13
2019-05-14T04:34:01.928Z,96664.90
2019-05-14T04:35:05.791Z,96667.75
2019-05-14T04:36:10.259Z,96669.05
2019-05-14T04:37:14.313Z,96673.18
2019-05-14T04:38:20.220Z,96668.18
2019-05-14T04:39:23.870Z,96668.72
2019-05-14T04:40:29.641Z,96672.77
2019-05-14T04:41:33.334Z,96669.16
2019-05-14T04:42:40.243Z,96668.84
2019-05-14T04:43:42.855Z,96667.20
2019-05-14T04:44:49.979Z,96672.77
2019-05-14T04:45:52.286Z,96672.33
2019-05-14T04:46:56.276Z,96667.20
2019-05-14T04:48:00.381Z,96668.50
2019-05-14T04:49:04.685Z,96668.95
2019-05-14T04:50:10.619Z,96670.05
2019-05-14T04:51:14.131Z,96670.05
2019-05-14T04:52:20.582Z,96664.70
2019-05-14T04:53:23.481Z,96662.52
2019-05-14T04:54:30.083Z,96668.39
2019-05-14T04:55:32.834Z,96676.47
2019-05-14T04:56:39.480Z,96666.21
2019-05-14T04:57:42.034Z,96668.63
2019-05-14T04:58:49.264Z,96667.86
2019-05-14T04:59:51.444Z,96672.99
2019-05-14T05:00:54.880Z,96672.99
2019-05-14T05:02:00.046Z,96668.63
2019-05-14T05:03:08.233Z,96657.52
2019-05-14T05:04:09.774Z,96656.20
2019-05-14T05:05:13.550Z,96658.05
2019-05-14T05:06:19.190Z,96658.05
2019-05-14T05:07:22.767Z,96665.36
2019-05-14T05:08:30.042Z,96661.00
2019-05-14T05:09:31.998Z,96667.08
2019-05-14T05:10:35.974Z,96657.81
2019-05-14T05:11:39.811Z,96652.48
2019-05-14T05:12:43.819Z,96652.36
2019-05-14T05:13:48.701Z,96648.87
2019-05-14T05:14:52.835Z,96648.76
2019-05-14T05:15:59.116Z,96654.86
2019-05-14T05:17:01.986Z,96650.50
2019-05-14T05:18:05.581Z,96653.34
2019-05-14T05:19:10.390Z,96651.80
2019-05-14T05:20:14.192Z,96653.98
2019-05-14T05:21:19.247Z,96653.23
2019-05-14T05:22:22.882Z,96654.87
2019-05-14T05:23:28.211Z,96649.84
2019-05-14T05:24:31.965Z,96652.11
2019-05-14T05:25:38.312Z,96655.72
2019-05-14T05:26:41.259Z,96657.02
2019-05-14T05:27:45.314Z,96657.02
2019-05-14T05:29:02.358Z,96660.30
2019-05-14T05:29:54.599Z,96653.75
2019-05-14T05:30:58.697Z,96652.45
2019-05-14T05:32:02.661Z,96650.68
2019-05-14T05:33:06.130Z,96648.52
2019-05-14T05:34:10.121Z,96648.52
2019-05-14T05:35:13.704Z,96643.93
2019-05-14T05:36:18.493Z,96647.41
2019-05-14T05:37:22.079Z,96647.81
2019-05-14T05:38:26.101Z,96651.75
2019-05-14T05:39:29.593Z,96645.83
2019-05-14T05:40:33.653Z,96642.22
2019-05-14T05:41:38.492Z,96648.23
2019-05-14T05:42:42.623Z,96651.62
2019-05-14T05:43:48.325Z,96651.05
2019-05-14T05:44:51.794Z,96655.31
2019-05-14T05:45:55.325Z,96650.48
2019-05-14T05:46:59.842Z,96647.66
2019-05-14T05:48:03.392Z,96647.66
2019-05-14T05:49:08.083Z,96656.06
2019-05-14T05:50:11.646Z,96654.61
2019-05-14T05:51:18.412Z,96651.45
2019-05-14T05:52:20.884Z,96655.58
2019-05-14T05:53:24.897Z,96655.58
2019-05-14T05:54:29.202Z,96651.95
2019-05-14T05:55:33.421Z,96651.95
2019-05-14T05:56:38.739Z,96651.16
2019-05-14T05:57:42.729Z,96654.97
2019-05-14T05:58:48.596Z,96653.78
2019-05-14T05:59:51.919Z,96650.50
2019-05-14T06:00:55.399Z,96652.04
2019-05-14T06:01:59.495Z,96651.89
2019-05-14T06:03:03.039Z,96654.52
2019-05-14T06:04:08.737Z,96653.09
2019-05-14T06:05:12.327Z,96645.45
2019-05-14T06:06:16.352Z,96648.37
2019-05-14T06:07:19.850Z,96649.34
2019-05-14T06:08:23.836Z,96652.61
2019-05-14T06:09:28.641Z,96652.05
2019-05-14T06:10:32.830Z,96647.37
2019-05-14T06:11:38.108Z,96642.20
2019-05-14T06:12:42.132Z,96645.67
2019-05-14T06:13:48.301Z,96643.40
2019-05-14T06:14:51.318Z,96643.40
2019-05-14T06:15:54.755Z,96642.05
2019-05-14T06:16:59.229Z,96642.05
2019-05-14T06:18:14.074Z,96640.73
2019-05-14T06:19:08.518Z,96647.17
2019-05-14T06:20:12.208Z,96633.63
2019-05-14T06:21:18.705Z,96640.03
2019-05-14T06:22:21.425Z,96640.52
2019-05-14T06:23:25.438Z,96640.52
2019-05-14T06:24:30.588Z,96642.06
2019-05-14T06:25:34.760Z,96640.41
2019-05-14T06:26:38.511Z,96633.18
2019-05-14T06:27:42.678Z,96637.41
2019-05-14T06:28:48.434Z,96634.98
2019-05-14T06:29:54.426Z,96641.97
2019-05-14T06:30:58.925Z,96634.09
2019-05-14T06:32:02.745Z,96646.55
2019-05-14T06:33:09.018Z,96636.89
2019-05-14T06:34:12.059Z,96630.44
2019-05-14T06:35:15.665Z,96628.01
2019-05-14T06:36:19.920Z,96630.63
2019-05-14T06:37:23.360Z,96630.50
2019-05-14T06:38:29.431Z,96636.40
2019-05-14T06:39:32.515Z,96631.57
2019-05-14T06:40:39.269Z,96627.76
2019-05-14T06:41:43.022Z,96629.20
2019-05-14T06:42:48.612Z,96637.54
2019-05-14T06:43:52.132Z,96626.50
2019-05-14T06:44:58.411Z,96630.63
2019-05-14T06:46:01.385Z,96634.67
2019-05-14T06:47:05.464Z,96626.64
2019-05-14T06:48:09.034Z,96629.14
2019-05-14T06:49:13.016Z,96635.03
2019-05-14T06:50:19.039Z,96630.20
2019-05-14T06:51:22.598Z,96625.79
2019-05-14T06:52:26.070Z,96622.08
2019-05-14T06:53:30.047Z,96625.19
2019-05-14T06:54:33.490Z,96616.96
2019-05-14T06:55:39.332Z,96621.00
2019-05-14T06:56:42.788Z,96617.67
2019-05-14T06:57:48.036Z,96611.97
2019-05-14T06:58:51.622Z,96611.48
2019-05-14T06:59:55.601Z,96615.63
2019-05-14T07:00:59.295Z,96606.78
2019-05-14T07:02:03.288Z,96612.64
2019-05-14T07:03:08.957Z,96604.70
2019-05-14T07:04:12.444Z,96599.16
2019-05-14T07:05:16.115Z,96597.84
2019-05-14T07:06:20.171Z,96600.19
2019-05-14T07:07:23.631Z,96606.84
2019-05-14T07:08:28.443Z,96602.30
2019-05-14T07:09:32.161Z,96606.84
2019-05-14T07:10:36.180Z,96600.24
2019-05-14T07:11:39.607Z,96602.80
2019-05-14T07:12:43.608Z,96602.45
2019-05-14T07:13:49.207Z,96603.82
2019-05-14T07:14:53.023Z,96600.23
2019-05-14T07:15:58.390Z,96594.09
2019-05-14T07:17:02.324Z,96601.64
2019-05-14T07:18:08.477Z,96599.63
2019-05-14T07:19:11.536Z,96598.11
2019-05-14T07:20:15.210Z,96599.36
2019-05-14T07:21:19.281Z,96601.50
2019-05-14T07:22:22.776Z,96590.85
2019-05-14T07:23:28.911Z,96593.34
2019-05-14T07:24:31.971Z,96592.99
2019-05-14T07:25:35.967Z,96587.68
2019-05-14T07:26:39.464Z,96592.36
2019-05-14T07:27:43.546Z,96591.27
2019-05-14T07:28:48.837Z,96585.74
2019-05-14T07:29:52.707Z,96588.23
2019-05-14T07:30:59.030Z,96586.05
2019-05-14T07:32:01.845Z,96592.27
2019-05-14T07:33:05.374Z,96594.48
2019-05-14T07:34:09.370Z,96588.81
2019-05-14T07:35:13.050Z,96585.61
2019-05-14T07:36:18.871Z,96586.37
2019-05-14T07:37:22.227Z,96586.11
2019-05-14T07:38:28.404Z,96589.56
2019-05-14T07:39:31.380Z,96584.17
2019-05-14T07:40:38.600Z,96585.20
2019-05-14T07:41:40.627Z,96585.08
2019-05-14T07:42:44.685Z,96584.22
2019-05-14T07:43:48.400Z,96581.09
2019-05-14T07:44:52.506Z,96581.73
2019-05-14T07:45:58.057Z,96577.06
2019-05-14T07:47:01.727Z,96578.73
2019-05-14T07:48:05.280Z,96583.81
2019-05-14T07:49:11.932Z,96582.55
2019-05-14T07:50:14.933Z,96575.43
2019-05-14T07:51:19.218Z,96578.33
2019-05-14T07:52:22.649Z,96577.78
2019-05-14T07:53:36.169Z,96575.30
2019-05-14T07:54:31.819Z,96573.35
2019-05-14T07:55:38.326Z,96571.70
2019-05-14T07:56:40.966Z,96571.13
2019-05-14T07:57:44.957Z,96568.36
2019-05-14T07:58:49.064Z,96564.00
2019-05-14T07:59:53.351Z,96570.03
2019-05-14T08:00:58.596Z,96564.68
2019-05-14T08:02:02.523Z,96563.63
2019-05-14T08:03:08.085Z,96569.70
2019-05-14T08:04:12.004Z,96558.69
2019-05-14T08:05:17.947Z,96564.58
2019-05-14T08:06:21.609Z,96569.52
2019-05-14T08:07:25.057Z,96570.00
2019-05-14T08:08:29.421Z,96565.55
2019-05-14T08:09:32.936Z,96563.23
2019-05-14T08:10:39.035Z,96556.32
2019-05-14T08:11:42.178Z,96558.59
2019-05-14T08:12:48.336Z,96554.42
2019-05-14T08:13:51.383Z,96551.20
2019-05-14T08:15:13.393Z,96554.23
2019-05-14T08:16:01.218Z,96549.92
2019-05-14T08:17:05.293Z,96550.59
2019-05-14T08:18:08.738Z,96539.77
2019-05-14T08:19:24.380Z,96553.38
2019-05-14T08:20:18.730Z,96545.34
2019-05-14T08:21:22.757Z,96541.09
2019-05-14T08:22:26.202Z,96548.88
2019-05-14T08:23:29.977Z,96539.66
2019-05-14T08:24:33.428Z,96536.89
2019-05-14T08:25:39.043Z,96536.52
2019-05-14T08:26:44.103Z,96539.22
2019-05-14T08:27:48.378Z,96546.25
2019-05-14T08:28:51.925Z,96543.22
2019-05-14T08:29:55.912Z,96534.66
2019-05-14T08:30:59.347Z,96535.94
2019-05-14T08:32:03.364Z,96526.36
2019-05-14T08:33:08.768Z,96527.45
2019-05-14T08:34:12.513Z,96529.75
2019-05-14T08:35:18.401Z,96531.88
2019-05-14T08:36:21.853Z,96533.30
2019-05-14T08:37:27.843Z,96529.41
2019-05-14T08:38:31.223Z,96527.91
2019-05-14T08:39:34.729Z,96535.14
2019-05-14T08:40:38.888Z,96536.86
2019-05-14T08:41:42.389Z,96537.62
2019-05-14T08:42:46.376Z,96535.95
2019-05-14T08:43:49.891Z,96534.17
2019-05-14T08:44:53.899Z,96530.98
2019-05-14T08:45:58.700Z,96525.80
2019-05-14T08:47:03.012Z,96522.92
2019-05-14T08:48:09.000Z,96527.89
2019-05-14T08:49:12.340Z,96517.94
2019-05-14T08:50:18.807Z,96521.98
2019-05-14T08:51:22.832Z,96525.72
2019-05-14T08:52:28.598Z,96525.01
2019-05-14T08:53:31.989Z,96527.80
2019-05-14T08:54:35.549Z,96528.71
2019-05-14T08:55:39.337Z,96530.64
2019-05-14T08:56:42.858Z,96533.28
2019-05-14T08:57:48.960Z,96528.89
2019-05-14T08:58:52.006Z,96526.88
2019-05-14T08:59:59.151Z,96533.61
2019-05-14T09:01:01.304Z,96534.13
2019-05-14T09:02:06.525Z,96532.53
2019-05-14T09:03:10.556Z,96534.03
2019-05-14T09:04:14.559Z,96527.56
2019-05-14T09:05:18.415Z,96525.95
2019-05-14T09:06:22.395Z,96532.53
2019-05-14T09:07:25.915Z,96527.42
2019-05-14T09:08:29.908Z,96535.68
2019-05-14T09:09:33.340Z,96538.80
2019-05-14T09:10:40.012Z,96540.76
2019-05-14T09:11:45.408Z,96545.03
2019-05-14T09:12:49.080Z,96544.95
2019-05-14T09:13:52.697Z,96550.44
2019-05-14T09:14:58.887Z,96550.39
2019-05-14T09:16:01.916Z,96552.59
2019-05-14T09:17:05.921Z,96552.44
2019-05-14T09:18:11.697Z,96552.70
2019-05-14T09:19:15.216Z,96553.41
2019-05-14T09:20:18.941Z,96556.05
2019-05-14T09:21:22.947Z,96552.66
2019-05-14T09:22:28.761Z,96554.73
2019-05-14T09:23:32.135Z,96546.56
2019-05-14T09:24:38.454Z,96551.27
2019-05-14T09:25:46.934Z,96557.06
2019-05-14T09:26:48.393Z,96555.16
2019-05-14T09:27:52.414Z,96551.36
2019-05-14T09:28:55.863Z,96555.34
2019-05-14T09:29:59.868Z,96542.80
2019-05-14T09:31:03.313Z,96548.66
2019-05-14T09:32:09.552Z,96546.53
2019-05-14T09:33:12.473Z,96549.56
2019-05-14T09:34:16.459Z,96543.25
2019-05-14T09:35:19.922Z,96547.45
2019-05-14T09:36:24.461Z,96539.70
2019-05-14T09:37:28.862Z,96546.02
2019-05-14T09:38:32.993Z,96542.08
2019-05-14T09:39:38.539Z,96536.14
2019-05-14T09:40:42.201Z,96537.32
2019-05-14T09:41:48.044Z,96533.99
2019-05-14T09:42:51.515Z,96536.92
2019-05-14T09:43:55.035Z,96533.63
2019-05-14T09:44:59.707Z,96532.69
2019-05-14T09:46:03.146Z,96531.73
2019-05-14T09:47:08.471Z,96530.02
2019-05-14T09:48:12.162Z,96527.93
2019-05-14T09:49:18.549Z,96533.45
2019-05-14T09:50:23.507Z,96530.96
2019-05-14T09:51:28.808Z,96526.55
2019-05-14T09:52:32.378Z,96530.23
2019-05-14T09:53:38.353Z,96521.12
2019-05-14T09:54:43.983Z,96516.66
2019-05-14T09:55:49.108Z,96518.08
2019-05-14T09:56:52.504Z,96524.55
2019-05-14T09:57:58.550Z,96520.23
2019-05-14T09:59:01.665Z,96517.94
2019-05-14T10:00:09.101Z,96516.31
2019-05-14T10:01:12.736Z,96518.11
2019-05-14T10:02:16.710Z,96507.78
2019-05-14T10:03:20.139Z,96508.67
2019-05-14T10:04:24.141Z,96504.70
2019-05-14T10:05:27.717Z,96505.28
2019-05-14T10:06:31.733Z,96504.52
2019-05-14T10:07:35.175Z,96507.05
2019-05-14T10:08:39.312Z,96507.79
2019-05-14T10:09:42.777Z,96508.10
2019-05-14T10:10:48.855Z,96506.33
2019-05-14T10:11:51.925Z,96502.09
2019-05-14T10:12:57.199Z,96507.83
2019-05-14T10:14:01.163Z,96503.70
2019-05-14T10:15:09.592Z,96498.36
2019-05-14T10:16:13.050Z,96500.08
2019-05-14T10:17:19.343Z,96503.11
2019-05-14T10:18:22.365Z,96503.17
2019-05-14T10:19:29.324Z,96495.94
2019-05-14T10:20:40.903Z,96493.94
2019-05-14T10:21:38.852Z,96488.82
2019-05-14T10:22:42.439Z,96493.70
2019-05-14T10:23:46.514Z,96485.05
2019-05-14T10:24:49.971Z,96494.53
2019-05-14T10:25:53.966Z,96494.23
2019-05-14T10:26:58.565Z,96487.37
2019-05-14T10:28:02.725Z,96485.00
2019-05-14T10:29:08.523Z,96483.73
2019-05-14T10:30:12.266Z,96491.20
2019-05-14T10:31:18.119Z,96479.83
2019-05-14T10:32:21.552Z,96480.42
2019-05-14T10:33:24.985Z,96469.69
2019-05-14T10:34:29.043Z,96477.27
2019-05-14T10:35:32.463Z,96475.19
2019-05-14T10:36:36.291Z,96470.83
2019-05-14T10:37:40.206Z,96475.88
2019-05-14T10:38:44.197Z,96474.89
2019-05-14T10:39:47.651Z,96470.42
2019-05-14T10:40:51.733Z,96472.61
2019-05-14T10:41:55.161Z,96448.59
2019-05-14T10:42:59.215Z,96473.31
2019-05-14T10:44:02.730Z,96472.98
2019-05-14T10:45:12.451Z,96470.16
2019-05-14T10:46:13.125Z,96471.28
2019-05-14T10:47:18.783Z,96465.22
2019-05-14T10:48:22.344Z,96461.59
2019-05-14T10:49:29.734Z,96462.44
2019-05-14T10:50:31.553Z,96469.38
2019-05-14T10:51:35.699Z,96459.16
2019-05-14T10:52:39.671Z,96467.80
2019-05-14T10:53:43.743Z,96461.80
2019-05-14T10:54:55.331Z,96462.08
2019-05-14T10:55:52.878Z,96464.38
2019-05-14T10:56:59.177Z,96451.31
2019-05-14T10:58:02.149Z,96451.97
2019-05-14T10:59:05.704Z,96453.38
2019-05-14T11:00:10.331Z,96452.68
2019-05-14T11:01:13.833Z,96457.27
2019-05-14T11:02:18.540Z,96467.48
2019-05-14T11:03:22.151Z,96454.63
2019-05-14T11:04:28.402Z,96448.36
2019-05-14T11:05:31.361Z,96443.61
2019-05-14T11:06:35.422Z,96445.52
2019-05-14T11:07:41.710Z,96439.05
2019-05-14T11:08:44.634Z,96444.04
2019-05-14T11:09:48.623Z,96442.00
2019-05-14T11:10:52.701Z,96443.66
2019-05-14T11:11:58.221Z,96440.59
2019-05-14T11:13:01.867Z,96447.91
2019-05-14T11:14:05.435Z,96452.59
2019-05-14T11:15:11.063Z,96453.01
2019-05-14T11:16:14.498Z,96453.69
2019-05-14T11:17:19.728Z,96459.63
2019-05-14T11:18:23.319Z,96456.73
2019-05-14T11:19:28.168Z,96462.52
2019-05-14T11:20:31.777Z,96463.41
2019-05-14T11:21:35.768Z,96469.70
2019-05-14T11:22:39.336Z,96476.73
2019-05-14T11:23:43.423Z,96472.83
2019-05-14T11:24:49.131Z,96475.67
2019-05-14T11:25:52.659Z,96478.78
2019-05-14T11:26:58.854Z,96472.94
2019-05-14T11:28:01.936Z,96473.09
2019-05-14T11:29:05.633Z,96472.17
2019-05-14T11:30:10.395Z,96474.89
2019-05-14T11:31:13.832Z,96469.31
2019-05-14T11:32:18.548Z,96469.40
2019-05-14T11:33:22.072Z,96466.45
2019-05-14T11:34:28.527Z,96461.84
2019-05-14T11:35:31.332Z,96456.25
2019-05-14T11:36:35.324Z,96451.53
2019-05-14T11:37:41.506Z,96454.95
2019-05-14T11:38:44.731Z,96452.79
2019-05-14T11:39:48.792Z,96453.69
2019-05-14T11:40:52.922Z,96448.92
2019-05-14T11:41:58.762Z,96452.09
2019-05-14T11:43:02.078Z,96451.40
2019-05-14T11:44:05.656Z,96445.64
2019-05-14T11:45:10.609Z,96441.25
2019-05-14T11:46:14.196Z,96450.17
2019-05-14T11:47:18.300Z,96444.67
2019-05-14T11:48:21.850Z,96453.64
2019-05-14T11:49:25.834Z,96440.08
2019-05-14T11:50:29.290Z,96438.16
2019-05-14T11:51:58.832Z,96430.83
2019-05-14T11:52:38.948Z,96428.74
2019-05-14T11:53:42.980Z,96422.88
2019-05-14T11:54:49.206Z,96425.98
2019-05-14T11:55:52.157Z,96427.63
2019-05-14T11:56:55.604Z,96422.19
2019-05-14T11:57:59.592Z,96419.68
2019-05-14T11:59:03.375Z,96423.20
2019-05-14T12:00:08.927Z,96420.25
2019-05-14T12:01:12.453Z,96418.22
2019-05-14T12:02:18.774Z,96412.40
2019-05-14T12:03:21.741Z,96409.58
2019-05-14T12:04:28.218Z,96412.42
2019-05-14T12:05:30.910Z,96413.33
2019-05-14T12:06:34.972Z,96403.61
2019-05-14T12:07:38.979Z,96399.42
2019-05-14T12:08:43.176Z,96399.21
2019-05-14T12:09:46.676Z,96401.11
2019-05-14T12:10:50.667Z,96394.75
2019-05-14T12:11:54.202Z,96387.59
2019-05-14T12:12:58.571Z,96401.63
2019-05-14T12:14:02.024Z,96391.22
2019-05-14T12:15:08.883Z,96378.98
2019-05-14T12:16:12.506Z,96380.88
2019-05-14T12:17:16.527Z,96379.41
2019-05-14T12:18:20.031Z,96380.84
2019-05-14T12:19:24.096Z,96379.91
2019-05-14T12:20:29.596Z,96381.58
2019-05-14T12:21:33.255Z,96369.05
2019-05-14T12:22:39.041Z,96360.53
2019-05-14T12:23:42.504Z,96366.03
2019-05-14T12:24:45.935Z,96370.61
2019-05-14T12:25:50.071Z,96362.55
2019-05-14T12:26:53.504Z,96356.28
2019-05-14T12:27:58.918Z,96362.70
2019-05-14T12:29:02.532Z,96363.64
2019-05-14T12:30:09.653Z,96363.49
2019-05-14T12:31:13.350Z,96365.36
2019-05-14T12:32:18.921Z,96360.27
2019-05-14T12:33:22.674Z,96359.82
2019-05-14T12:34:29.394Z,96356.58
2019-05-14T12:35:31.833Z,96356.34
2019-05-14T12:36:38.699Z,96354.40